createdAt,value
2018-12-05T00:00:22.634Z,4.87
2018-12-05T00:01:22.603Z,4.87
2018-12-05T00:02:22.570Z,4.88
2018-12-05T00:03:22.537Z,4.80
2018-12-05T00:04:22.505Z,4.88
2018-12-05T00:05:22.471Z,4.93
2018-12-05T00:06:22.443Z,4.74
2018-12-05T00:07:22.406Z,4.77
2018-12-05T00:08:22.373Z,4.74
2018-12-05T00:09:22.343Z,4.68
2018-12-05T00:10:22.310Z,4.62
2018-12-05T00:11:22.276Z,4.64
2018-12-05T00:12:22.243Z,4.57
2018-12-05T00:13:22.210Z,4.62
2018-12-05T00:14:22.177Z,4.61
2018-12-05T00:15:22.145Z,4.53
2018-12-05T00:16:22.115Z,4.53
2018-12-05T00:17:22.081Z,4.50
2018-12-05T00:18:22.046Z,4.47
2018-12-05T00:19:22.014Z,4.49
2018-12-05T00:20:21.983Z,4.42
2018-12-05T00:21:21.949Z,4.46
2018-12-05T00:22:21.916Z,4.46
2018-12-05T00:23:21.886Z,4.44
2018-12-05T00:24:21.850Z,4.46
2018-12-05T00:25:21.818Z,4.46
2018-12-05T00:26:21.783Z,4.35
2018-12-05T00:27:21.750Z,4.44
2018-12-05T00:28:21.720Z,4.42
2018-12-05T00:29:21.685Z,4.42
2018-12-05T00:30:21.657Z,4.44
2018-12-05T00:31:21.619Z,4.39
2018-12-05T00:32:21.587Z,4.32
2018-12-05T00:33:21.556Z,4.32
2018-12-05T00:34:21.520Z,4.42
2018-12-05T00:35:21.487Z,4.47
2018-12-05T00:36:21.457Z,4.36
2018-12-05T00:37:21.422Z,4.43
2018-12-05T00:38:21.393Z,4.46
2018-12-05T00:39:21.355Z,4.47
2018-12-05T00:40:21.322Z,4.46
2018-12-05T00:41:21.290Z,4.46
2018-12-05T00:42:21.256Z,4.46
2018-12-05T00:43:21.225Z,4.38
2018-12-05T00:44:21.190Z,4.34
2018-12-05T00:45:21.160Z,4.34
2018-12-05T00:46:21.126Z,4.32
2018-12-05T00:47:21.091Z,4.31
2018-12-05T00:48:21.060Z,4.39
2018-12-05T00:49:21.026Z,4.28
2018-12-05T00:50:20.997Z,4.31
2018-12-05T00:51:20.960Z,4.31
2018-12-05T00:52:20.926Z,4.32
2018-12-05T00:53:20.898Z,4.31
2018-12-05T00:54:20.860Z,4.26
2018-12-05T00:55:20.829Z,4.36
2018-12-05T00:56:20.794Z,4.32
2018-12-05T00:57:20.761Z,4.17
2018-12-05T00:58:20.731Z,4.28
2018-12-05T00:59:20.695Z,4.31
2018-12-05T01:00:20.662Z,4.25
2018-12-05T01:01:20.631Z,4.34
2018-12-05T01:02:20.595Z,4.32
2018-12-05T01:03:20.562Z,4.25
2018-12-05T01:04:20.529Z,4.20
2018-12-05T01:05:20.497Z,4.24
2018-12-05T01:06:20.465Z,4.34
2018-12-05T01:07:20.430Z,4.25
2018-12-05T01:08:20.402Z,4.28
2018-12-05T01:09:20.517Z,4.26
2018-12-05T01:10:20.330Z,4.18
2018-12-05T01:11:20.297Z,4.46
2018-12-05T01:12:20.265Z,4.34
2018-12-05T01:13:20.232Z,4.26
2018-12-05T01:14:20.199Z,4.38
2018-12-05T01:15:20.166Z,4.38
2018-12-05T01:16:20.214Z,4.42
2018-12-05T01:17:20.100Z,4.46
2018-12-05T01:18:20.066Z,4.32
2018-12-05T01:19:20.032Z,4.39
2018-12-05T01:20:20.000Z,4.39
2018-12-05T01:21:19.978Z,4.38
2018-12-05T01:22:19.933Z,4.43
2018-12-05T01:23:19.906Z,4.35
2018-12-05T01:24:19.871Z,4.44
2018-12-05T01:25:19.837Z,4.39
2018-12-05T01:26:19.800Z,4.42
2018-12-05T01:27:19.768Z,4.44
2018-12-05T01:28:19.735Z,4.43
2018-12-05T01:29:19.708Z,4.50
2018-12-05T01:30:19.668Z,4.51
2018-12-05T01:31:19.636Z,4.54
2018-12-05T01:32:19.605Z,4.57
2018-12-05T01:33:19.578Z,4.51
2018-12-05T01:34:19.539Z,4.54
2018-12-05T01:35:19.503Z,4.57
2018-12-05T01:36:19.475Z,4.57
2018-12-05T01:37:19.438Z,4.59
2018-12-05T01:38:19.403Z,4.54
2018-12-05T01:39:19.371Z,4.61
2018-12-05T01:40:19.338Z,4.56
2018-12-05T01:41:19.305Z,4.62
2018-12-05T01:42:19.271Z,4.59
2018-12-05T01:43:19.238Z,4.54
2018-12-05T01:44:19.211Z,4.57
2018-12-05T01:45:19.173Z,4.57
2018-12-05T01:46:19.139Z,4.54
2018-12-05T01:47:19.106Z,4.47
2018-12-05T01:48:19.073Z,4.51
2018-12-05T01:49:19.047Z,4.53
2018-12-05T01:50:19.009Z,4.49
2018-12-05T01:51:18.974Z,4.51
2018-12-05T01:52:18.941Z,4.57
2018-12-05T01:53:18.912Z,4.53
2018-12-05T01:54:18.875Z,4.56
2018-12-05T01:55:18.845Z,4.57
2018-12-05T01:56:18.809Z,4.42
2018-12-05T01:57:18.776Z,4.46
2018-12-05T01:58:18.742Z,4.46
2018-12-05T01:59:18.727Z,4.43
2018-12-05T02:00:18.676Z,4.43
2018-12-05T02:01:18.645Z,4.39
2018-12-05T02:02:18.615Z,4.44
2018-12-05T02:03:18.577Z,4.44
2018-12-05T02:04:18.545Z,4.43
2018-12-05T02:05:18.512Z,4.44
2018-12-05T02:06:18.480Z,4.36
2018-12-05T02:07:18.447Z,4.44
2018-12-05T02:08:18.420Z,4.38
2018-12-05T02:09:18.380Z,4.32
2018-12-05T02:10:18.346Z,4.36
2018-12-05T02:11:18.313Z,4.32
2018-12-05T02:12:18.280Z,4.28
2018-12-05T02:13:18.247Z,4.21
2018-12-05T02:14:18.213Z,4.25
2018-12-05T02:15:18.182Z,4.18
2018-12-05T02:16:18.147Z,4.24
2018-12-05T02:17:18.115Z,4.26
2018-12-05T02:18:18.095Z,4.25
2018-12-05T02:19:18.062Z,4.18
2018-12-05T02:20:18.021Z,4.25
2018-12-05T02:21:17.989Z,4.25
2018-12-05T02:22:17.947Z,4.21
2018-12-05T02:23:17.922Z,4.18
2018-12-05T02:24:17.882Z,4.18
2018-12-05T02:25:17.855Z,4.21
2018-12-05T02:26:17.815Z,4.21
2018-12-05T02:27:17.785Z,4.25
2018-12-05T02:28:17.749Z,4.21
2018-12-05T02:29:17.721Z,4.20
2018-12-05T02:30:17.737Z,4.14
2018-12-05T02:31:17.662Z,4.16
2018-12-05T02:32:17.620Z,4.21
2018-12-05T02:33:17.584Z,4.20
2018-12-05T02:34:17.550Z,4.21
2018-12-05T02:35:17.517Z,4.16
2018-12-05T02:36:17.483Z,4.21
2018-12-05T02:37:17.453Z,4.14
2018-12-05T02:38:17.417Z,4.11
2018-12-05T02:39:17.386Z,4.10
2018-12-05T02:40:17.352Z,4.10
2018-12-05T02:41:17.318Z,4.18
2018-12-05T02:42:17.438Z,4.13
2018-12-05T02:43:17.293Z,4.25
2018-12-05T02:44:17.219Z,4.25
2018-12-05T02:45:17.186Z,4.16
2018-12-05T02:46:17.152Z,4.16
2018-12-05T02:47:17.119Z,4.11
2018-12-05T02:48:17.086Z,4.16
2018-12-05T02:49:17.055Z,4.11
2018-12-05T02:50:17.025Z,4.08
2018-12-05T02:51:16.985Z,4.14
2018-12-05T02:52:16.951Z,4.14
2018-12-05T02:53:16.919Z,4.11
2018-12-05T02:54:16.884Z,4.10
2018-12-05T02:55:16.851Z,4.13
2018-12-05T02:56:16.819Z,4.08
2018-12-05T02:57:16.785Z,4.16
2018-12-05T02:58:16.751Z,4.18
2018-12-05T02:59:16.719Z,4.20
2018-12-05T03:00:16.686Z,4.10
2018-12-05T03:01:16.653Z,4.06
2018-12-05T03:02:16.617Z,4.14
2018-12-05T03:03:16.586Z,4.11
2018-12-05T03:04:16.557Z,4.14
2018-12-05T03:05:16.518Z,4.10
2018-12-05T03:06:16.486Z,4.10
2018-12-05T03:07:16.452Z,3.99
2018-12-05T03:08:16.418Z,3.99
2018-12-05T03:09:16.392Z,4.02
2018-12-05T03:10:16.351Z,4.07
2018-12-05T03:11:16.318Z,4.06
2018-12-05T03:12:16.289Z,4.02
2018-12-05T03:13:16.251Z,4.02
2018-12-05T03:14:16.218Z,3.99
2018-12-05T03:15:16.200Z,4.02
2018-12-05T03:16:16.151Z,3.93
2018-12-05T03:17:16.120Z,3.89
2018-12-05T03:18:16.088Z,3.88
2018-12-05T03:19:16.051Z,3.84
2018-12-05T03:20:16.025Z,3.78
2018-12-05T03:21:15.986Z,3.64
2018-12-05T03:22:15.952Z,3.63
2018-12-05T03:23:15.918Z,3.67
2018-12-05T03:24:15.887Z,3.74
2018-12-05T03:25:15.866Z,3.68
2018-12-05T03:26:15.820Z,3.62
2018-12-05T03:27:15.788Z,3.60
2018-12-05T03:28:15.750Z,3.53
2018-12-05T03:29:15.718Z,3.42
2018-12-05T03:30:15.684Z,3.44
2018-12-05T03:31:15.671Z,3.44
2018-12-05T03:32:15.625Z,3.52
2018-12-05T03:33:15.584Z,3.46
2018-12-05T03:34:15.550Z,3.49
2018-12-05T03:35:15.518Z,3.53
2018-12-05T03:36:15.486Z,3.64
2018-12-05T03:37:15.451Z,3.62
2018-12-05T03:38:15.417Z,3.62
2018-12-05T03:39:15.384Z,3.59
2018-12-05T03:40:15.362Z,3.59
2018-12-05T03:41:15.322Z,3.56
2018-12-05T03:42:15.280Z,3.54
2018-12-05T03:43:15.247Z,3.45
2018-12-05T03:44:15.215Z,3.52
2018-12-05T03:45:15.182Z,3.44
2018-12-05T03:46:15.150Z,3.57
2018-12-05T03:47:15.266Z,3.42
2018-12-05T03:48:15.082Z,3.41
2018-12-05T03:49:15.045Z,3.49
2018-12-05T03:50:15.028Z,3.63
2018-12-05T03:51:14.979Z,3.57
2018-12-05T03:52:14.964Z,3.60
2018-12-05T03:53:14.913Z,3.53
2018-12-05T03:54:15.210Z,3.56
2018-12-05T03:55:14.844Z,3.45
2018-12-05T03:56:14.811Z,3.45
2018-12-05T03:57:14.778Z,3.46
2018-12-05T03:58:14.747Z,3.42
2018-12-05T03:59:14.719Z,3.31
2018-12-05T04:00:14.678Z,3.35
2018-12-05T04:01:14.966Z,3.31
2018-12-05T04:02:14.609Z,3.33
2018-12-05T04:03:14.575Z,3.34
2018-12-05T04:04:14.568Z,3.12
2018-12-05T04:05:14.508Z,3.13
2018-12-05T04:06:14.474Z,2.99
2018-12-05T04:07:14.764Z,3.07
2018-12-05T04:08:14.408Z,3.12
2018-12-05T04:09:14.390Z,3.13
2018-12-05T04:10:14.345Z,3.04
2018-12-05T04:11:14.297Z,2.99
2018-12-05T04:12:14.587Z,2.90
2018-12-05T04:13:14.245Z,3.08
2018-12-05T04:14:14.211Z,3.01
2018-12-05T04:15:14.166Z,2.99
2018-12-05T04:16:14.127Z,3.16
2018-12-05T04:17:14.105Z,3.19
2018-12-05T04:18:14.072Z,3.20
2018-12-05T04:19:14.025Z,3.16
2018-12-05T04:20:14.007Z,3.08
2018-12-05T04:21:13.973Z,3.13
2018-12-05T04:22:56.422Z,3.07
2018-12-05T04:23:56.050Z,2.95
2018-12-05T04:24:56.010Z,2.94
2018-12-05T04:25:56.286Z,2.90
2018-12-05T04:26:55.949Z,3.05
2018-12-05T04:27:55.899Z,3.08
2018-12-05T04:28:55.864Z,3.05
2018-12-05T04:29:55.830Z,2.97
2018-12-05T04:30:55.801Z,2.99
2018-12-05T04:31:55.763Z,3.01
2018-12-05T04:32:55.737Z,2.98
2018-12-05T04:33:55.695Z,3.07
2018-12-05T04:34:55.661Z,3.17
2018-12-05T04:35:55.945Z,3.07
2018-12-05T04:37:55.761Z,3.19
2018-12-05T04:57:11.433Z,3.10
2018-12-05T04:58:11.196Z,3.01
2018-12-05T04:59:11.153Z,3.15
2018-12-05T05:00:11.122Z,3.15
2018-12-05T05:01:11.082Z,3.17
2018-12-05T05:02:11.047Z,3.20
2018-12-05T05:03:11.163Z,3.25
2018-12-05T05:04:11.298Z,3.20
2018-12-05T05:05:11.154Z,3.34
2018-12-05T05:07:11.074Z,3.28
2018-12-05T05:08:10.837Z,3.19
2018-12-05T05:09:10.813Z,3.25
2018-12-05T05:10:10.980Z,3.22
2018-12-05T05:11:10.748Z,3.19
2018-12-05T05:12:10.707Z,3.23
2018-12-05T05:13:10.876Z,3.17
2018-12-05T05:14:10.846Z,3.34
2018-12-05T05:15:11.319Z,3.23
2018-12-05T05:16:52.906Z,3.33
2018-12-05T05:17:52.687Z,3.31
2018-12-05T05:18:52.646Z,3.26
2018-12-05T05:19:52.811Z,3.23
2018-12-05T05:20:52.567Z,3.33
2018-12-05T05:21:52.531Z,3.33
2018-12-05T05:22:52.702Z,3.33
2018-12-05T05:23:52.464Z,3.33
2018-12-05T05:24:52.430Z,3.33
2018-12-05T05:25:52.395Z,3.30
2018-12-05T05:26:52.361Z,3.25
2018-12-05T05:27:52.330Z,3.25
2018-12-05T05:28:52.301Z,3.13
2018-12-05T05:29:52.258Z,3.12
2018-12-05T05:30:52.228Z,3.15
2018-12-05T05:31:52.195Z,2.99
2018-12-05T05:32:52.158Z,3.01
2018-12-05T05:33:52.123Z,2.99
2018-12-05T05:34:52.088Z,2.94
2018-12-05T05:35:52.055Z,2.90
2018-12-05T05:36:52.021Z,2.95
2018-12-05T05:37:51.993Z,2.89
2018-12-05T05:40:58.586Z,2.89
2018-12-05T05:41:58.350Z,2.80
2018-12-05T05:42:58.520Z,2.89
2018-12-05T05:44:40.631Z,2.81
2018-12-05T05:45:40.390Z,2.71
2018-12-05T05:46:40.559Z,2.59
2018-12-05T05:47:40.321Z,2.73
2018-12-05T05:48:40.488Z,2.51
2018-12-05T05:49:40.252Z,2.48
2018-12-05T05:50:40.235Z,2.27
2018-12-05T05:51:40.703Z,2.33
2018-12-05T05:52:40.361Z,2.37
2018-12-05T05:53:40.131Z,2.37
2018-12-05T05:54:40.483Z,2.36
2018-12-05T05:55:40.062Z,2.30
2018-12-05T05:56:40.010Z,2.18
2018-12-05T05:57:40.178Z,2.04
2018-12-05T05:58:39.949Z,2.14
2018-12-05T05:59:39.909Z,2.07
2018-12-05T06:00:39.875Z,2.07
2018-12-05T06:01:39.840Z,1.95
2018-12-05T06:02:39.803Z,1.98
2018-12-05T06:03:39.772Z,1.89
2018-12-05T06:12:23.506Z,1.90
2018-12-05T06:13:23.272Z,2.00
2018-12-05T06:14:23.231Z,1.92
2018-12-05T06:15:23.197Z,1.89
2018-12-05T06:16:23.170Z,1.95
2018-12-05T06:17:23.124Z,2.00
2018-12-05T06:18:23.090Z,1.77
2018-12-05T06:19:23.054Z,1.82
2018-12-05T06:20:23.021Z,1.77
2018-12-05T06:21:22.984Z,1.68
2018-12-05T06:22:22.948Z,1.74
2018-12-05T06:23:22.914Z,1.71
2018-12-05T06:24:22.881Z,1.64
2018-12-05T06:25:22.843Z,1.60
2018-12-05T06:26:22.809Z,1.68
2018-12-05T06:27:22.775Z,1.79
2018-12-05T06:28:22.754Z,1.86
2018-12-05T06:29:22.704Z,1.83
2018-12-05T06:30:22.668Z,1.88
2018-12-05T06:31:22.634Z,1.82
2018-12-05T06:32:22.599Z,1.72
2018-12-05T06:33:22.564Z,1.74
2018-12-05T06:34:22.543Z,1.71
2018-12-05T06:35:22.709Z,1.70
2018-12-05T06:36:22.460Z,1.75
2018-12-05T06:37:22.430Z,1.70
2018-12-05T06:38:22.401Z,1.77
2018-12-05T06:39:22.355Z,1.79
2018-12-05T06:40:22.319Z,1.86
2018-12-05T06:41:22.602Z,1.72
2018-12-05T06:42:22.256Z,1.71
2018-12-05T06:44:22.182Z,1.88
2018-12-05T06:45:22.145Z,1.88
2018-12-05T06:46:22.112Z,1.89
2018-12-05T06:47:22.092Z,2.00
2018-12-05T06:48:22.044Z,1.93
2018-12-05T06:49:22.023Z,1.89
2018-12-05T06:50:21.972Z,1.88
2018-12-05T06:51:21.953Z,2.14
2018-12-05T06:52:22.119Z,2.14
2018-12-05T06:54:21.844Z,2.12
2018-12-05T06:55:21.817Z,2.18
2018-12-05T06:56:21.984Z,2.12
2018-12-05T07:31:46.869Z,2.37
2018-12-05T07:32:46.630Z,2.29
2018-12-05T07:33:46.587Z,2.33
2018-12-05T07:34:46.552Z,2.45
2018-12-05T07:35:46.513Z,2.47
2018-12-05T07:36:46.477Z,2.58
2018-12-05T07:37:46.442Z,2.73
2018-12-05T07:38:46.405Z,2.84
2018-12-05T07:39:46.371Z,2.89
2018-12-05T07:40:46.335Z,2.97
2018-12-05T07:41:46.306Z,3.12
2018-12-05T07:42:46.467Z,3.15
2018-12-05T07:43:46.228Z,3.42
2018-12-05T07:44:46.195Z,3.57
2018-12-05T07:45:46.159Z,3.59
2018-12-05T07:46:46.123Z,3.67
2018-12-05T07:47:46.092Z,3.67
2018-12-05T07:48:46.057Z,3.64
2018-12-05T07:49:46.020Z,3.45
2018-12-05T07:50:45.987Z,3.37
2018-12-05T07:51:45.954Z,3.35
2018-12-05T07:52:45.917Z,3.33
2018-12-05T07:53:45.885Z,3.56
2018-12-05T07:54:45.850Z,3.62
2018-12-05T07:55:45.816Z,3.77
2018-12-05T07:56:45.782Z,3.86
2018-12-05T07:57:45.750Z,3.98
2018-12-05T07:58:45.713Z,3.93
2018-12-05T07:59:45.691Z,4.02
2018-12-05T08:00:45.646Z,4.13
2018-12-05T08:01:45.614Z,4.02
2018-12-05T08:02:45.579Z,4.06
2018-12-05T08:03:45.547Z,4.16
2018-12-05T08:04:45.512Z,4.11
2018-12-05T08:05:45.479Z,4.21
2018-12-05T08:06:45.480Z,4.36
2018-12-05T08:07:45.418Z,4.29
2018-12-05T08:08:45.419Z,4.28
2018-12-05T08:09:45.346Z,4.32
2018-12-05T08:10:45.315Z,4.47
2018-12-05T08:11:45.282Z,4.49
2018-12-05T08:12:45.246Z,4.46
2018-12-05T08:13:45.219Z,4.43
2018-12-05T08:14:45.183Z,4.24
2018-12-05T08:15:45.146Z,4.14
2018-12-05T08:16:45.116Z,4.18
2018-12-05T08:17:45.081Z,4.20
2018-12-05T08:18:45.062Z,4.32
2018-12-05T08:19:45.016Z,4.43
2018-12-05T08:20:44.982Z,4.39
2018-12-05T08:21:44.952Z,4.43
2018-12-05T08:22:44.917Z,4.64
2018-12-05T08:23:44.887Z,4.53
2018-12-05T08:24:44.851Z,4.75
2018-12-05T08:25:45.136Z,4.77
2018-12-05T08:26:44.787Z,5.06
2018-12-05T08:27:44.756Z,5.04
2018-12-05T08:28:44.720Z,5.30
2018-12-05T08:29:44.686Z,5.17
2018-12-05T08:30:44.654Z,5.08
2018-12-05T08:31:44.635Z,5.08
2018-12-05T08:32:44.589Z,5.35
2018-12-05T08:33:44.568Z,5.22
2018-12-05T08:34:44.541Z,5.49
2018-12-05T08:35:44.509Z,5.51
2018-12-05T08:36:44.470Z,5.58
2018-12-05T08:37:44.441Z,5.74
2018-12-05T08:38:44.395Z,5.83
2018-12-05T08:39:44.366Z,5.87
2018-12-05T08:40:44.330Z,5.84
2018-12-05T08:42:44.277Z,6.02
2018-12-05T08:43:44.651Z,6.06
2018-12-05T08:44:44.201Z,6.19
2018-12-05T08:45:44.180Z,6.32
2018-12-05T08:46:44.148Z,6.40
2018-12-05T08:47:44.107Z,6.43
2018-12-05T08:48:44.092Z,6.55
2018-12-05T08:49:44.044Z,6.68
2018-12-05T08:50:44.012Z,6.53
2018-12-05T08:51:43.983Z,6.72
2018-12-05T08:52:43.947Z,6.57
2018-12-05T08:53:43.925Z,6.82
2018-12-05T08:54:43.886Z,7.00
2018-12-05T08:55:44.174Z,7.19
2018-12-05T08:56:43.837Z,7.44
2018-12-05T08:57:43.794Z,7.57
2018-12-05T08:58:43.762Z,7.62
2018-12-05T08:59:43.735Z,7.48
2018-12-05T09:00:43.697Z,8.06
2018-12-05T09:01:43.667Z,8.20
2018-12-05T09:02:43.640Z,8.00
2018-12-05T09:03:43.661Z,8.24
2018-12-05T09:04:43.574Z,7.95
2018-12-05T09:05:43.543Z,8.02
2018-12-05T09:06:43.513Z,7.86
2018-12-05T09:07:43.483Z,7.85
2018-12-05T09:08:43.450Z,7.95
2018-12-05T09:09:43.424Z,8.07
2018-12-05T09:10:43.391Z,7.94
2018-12-05T09:11:43.360Z,7.84
2018-12-05T09:12:43.337Z,8.28
2018-12-05T09:13:43.300Z,7.88
2018-12-05T09:14:43.274Z,7.79
2018-12-05T09:15:43.242Z,7.85
2018-12-05T09:16:43.207Z,8.12
2018-12-05T09:17:43.177Z,7.79
2018-12-05T09:18:43.155Z,7.42
2018-12-05T09:19:43.117Z,7.42
2018-12-05T09:20:43.091Z,7.54
2018-12-05T09:21:43.058Z,7.57
2018-12-05T09:22:43.029Z,7.19
2018-12-05T09:23:42.999Z,7.23
2018-12-05T09:24:42.979Z,7.34
2018-12-05T09:25:42.947Z,7.23
2018-12-05T09:26:42.909Z,7.05
2018-12-05T09:27:42.889Z,6.97
2018-12-05T09:28:43.063Z,6.90
2018-12-05T09:29:42.817Z,6.68
2018-12-05T09:30:42.788Z,6.38
2018-12-05T09:31:42.762Z,6.50
2018-12-05T09:32:42.747Z,6.64
2018-12-05T09:33:42.697Z,6.54
2018-12-05T09:34:42.669Z,6.64
2018-12-05T09:35:42.640Z,6.72
2018-12-05T09:36:42.609Z,6.69
2018-12-05T09:37:42.897Z,6.78
2018-12-05T09:38:42.548Z,6.55
2018-12-05T09:39:42.518Z,6.36
2018-12-05T09:40:42.488Z,6.38
2018-12-05T09:41:42.459Z,6.51
2018-12-05T09:42:42.427Z,6.51
2018-12-05T09:43:42.421Z,6.39
2018-12-05T09:44:42.369Z,6.57
2018-12-05T09:45:42.349Z,6.68
2018-12-05T09:46:42.311Z,6.63
2018-12-05T09:47:42.287Z,6.51
2018-12-05T09:48:42.254Z,6.71
2018-12-05T09:49:42.224Z,7.07
2018-12-05T09:50:42.199Z,6.87
2018-12-05T09:51:42.159Z,6.87
2018-12-05T09:52:42.133Z,7.09
2018-12-05T09:53:42.098Z,7.15
2018-12-05T09:54:42.282Z,6.87
2018-12-05T09:55:42.041Z,7.09
2018-12-05T09:56:42.008Z,7.18
2018-12-05T09:57:41.988Z,7.15
2018-12-05T09:58:41.949Z,7.29
2018-12-05T09:59:41.920Z,7.23
2018-12-05T10:00:41.887Z,7.09
2018-12-05T10:01:41.870Z,7.27
2018-12-05T10:02:41.829Z,7.11
2018-12-05T10:03:41.820Z,7.33
2018-12-05T10:04:41.774Z,7.60
2018-12-05T10:05:41.741Z,7.84
2018-12-05T10:06:41.715Z,7.77
2018-12-05T10:07:41.691Z,8.18
2018-12-05T10:08:41.653Z,7.76
2018-12-05T10:09:43.279Z,7.54
2018-12-05T10:10:41.600Z,7.29
2018-12-05T10:11:41.571Z,7.05
2018-12-05T10:12:41.835Z,6.96
2018-12-05T10:13:41.516Z,6.58
2018-12-05T10:14:41.682Z,6.68
2018-12-05T10:15:41.444Z,6.57
2018-12-05T10:16:41.427Z,6.39
2018-12-05T10:17:42.807Z,6.30
2018-12-05T10:18:41.369Z,6.14
2018-12-05T10:19:41.340Z,6.17
2018-12-05T10:20:42.117Z,6.57
2018-12-05T10:21:41.267Z,6.73
2018-12-05T10:22:41.236Z,6.93
2018-12-05T10:23:41.410Z,6.76
2018-12-05T10:24:41.187Z,6.45
2018-12-05T10:25:41.181Z,6.75
2018-12-05T10:26:41.131Z,6.36
2018-12-05T10:27:41.292Z,6.45
2018-12-05T10:28:41.059Z,6.35
2018-12-05T10:29:41.044Z,6.32
2018-12-05T10:30:41.011Z,6.53
2018-12-05T10:31:44.183Z,6.97
2018-12-05T10:32:40.955Z,7.16
2018-12-05T10:33:40.940Z,7.18
2018-12-05T10:34:40.894Z,6.87
2018-12-05T10:35:41.060Z,6.63
2018-12-05T10:36:40.829Z,6.64
2018-12-05T10:37:40.813Z,6.35
2018-12-05T10:38:44.198Z,6.54
2018-12-05T10:39:40.749Z,6.65
2018-12-05T10:40:40.703Z,6.55
2018-12-05T10:41:40.675Z,6.55
2018-12-05T10:42:40.680Z,6.50
2018-12-05T10:43:40.628Z,5.92
2018-12-05T10:44:40.653Z,5.77
2018-12-05T10:45:40.584Z,5.85
2018-12-05T10:46:40.734Z,5.75
2018-12-05T10:47:40.507Z,5.90
2018-12-05T10:48:40.705Z,5.70
2018-12-05T10:49:40.448Z,6.01
2018-12-05T10:50:40.407Z,5.98
2018-12-05T10:51:40.379Z,6.01
2018-12-05T10:52:40.348Z,5.99
2018-12-05T10:53:40.536Z,5.85
2018-12-05T10:54:40.318Z,5.90
2018-12-05T10:55:40.270Z,5.85
2018-12-05T10:56:40.266Z,5.77
2018-12-05T10:57:40.210Z,6.05
2018-12-05T10:58:40.175Z,6.11
2018-12-05T10:59:40.158Z,5.98
2018-12-05T11:00:40.109Z,5.90
2018-12-05T11:01:40.080Z,6.11
2018-12-05T11:02:40.052Z,5.92
2018-12-05T11:03:40.021Z,6.28
2018-12-05T11:04:39.994Z,6.30
2018-12-05T11:05:39.968Z,6.30
2018-12-05T11:06:39.931Z,6.69
2018-12-05T11:07:39.919Z,6.71
2018-12-05T11:08:39.889Z,6.89
2018-12-05T11:09:39.854Z,7.19
2018-12-05T11:10:40.027Z,7.34
2018-12-05T11:11:39.790Z,7.34
2018-12-05T11:12:39.755Z,7.69
2018-12-05T11:13:39.725Z,7.44
2018-12-05T11:14:39.712Z,7.44
2018-12-05T11:15:39.709Z,7.50
2018-12-05T11:16:39.656Z,7.23
2018-12-05T11:17:39.610Z,7.18
2018-12-05T11:18:39.579Z,6.82
2018-12-05T11:19:39.563Z,6.63
2018-12-05T11:20:39.723Z,6.68
2018-12-05T11:21:39.501Z,6.54
2018-12-05T11:22:39.462Z,6.33
2018-12-05T11:23:39.637Z,5.98
2018-12-05T11:24:39.425Z,5.77
2018-12-05T11:25:39.378Z,5.70
2018-12-05T11:26:39.866Z,5.78
2018-12-05T11:27:39.348Z,5.73
2018-12-05T11:28:39.303Z,5.56
2018-12-05T11:29:39.272Z,5.51
2018-12-05T11:30:39.227Z,5.42
2018-12-05T11:31:39.209Z,5.60
2018-12-05T11:32:39.174Z,5.70
2018-12-05T11:33:39.155Z,5.58
2018-12-05T11:34:39.141Z,5.59
2018-12-05T11:35:39.484Z,5.74
2018-12-05T11:36:39.257Z,5.69
2018-12-05T11:37:39.033Z,5.66
2018-12-05T11:39:39.284Z,5.73
2018-12-05T11:40:38.942Z,5.56
2018-12-05T11:41:38.918Z,5.58
2018-12-05T11:42:39.075Z,5.63
2018-12-05T11:43:38.857Z,5.62
2018-12-05T11:44:39.014Z,5.77
2018-12-05T11:45:38.790Z,5.84
2018-12-05T11:46:38.756Z,5.85
2018-12-05T11:47:38.723Z,5.77
2018-12-05T11:48:38.693Z,5.69
2018-12-05T11:49:39.012Z,5.77
2018-12-05T11:50:38.633Z,5.85
2018-12-05T11:51:38.604Z,5.67
2018-12-05T11:52:38.575Z,5.77
2018-12-05T11:53:38.543Z,5.77
2018-12-05T11:54:38.521Z,5.88
2018-12-05T11:55:38.483Z,5.90
2018-12-05T11:56:38.454Z,6.06
2018-12-05T11:57:38.424Z,6.16
2018-12-05T11:58:38.409Z,6.36
2018-12-05T11:59:38.365Z,6.40
2018-12-05T12:00:38.333Z,6.53
2018-12-05T12:01:38.307Z,6.55
2018-12-05T12:02:38.276Z,6.69
2018-12-05T12:03:38.245Z,6.79
2018-12-05T12:04:38.217Z,6.94
2018-12-05T12:05:38.190Z,6.78
2018-12-05T12:06:38.168Z,7.15
2018-12-05T12:07:38.127Z,7.21
2018-12-05T12:08:38.096Z,7.36
2018-12-05T12:09:38.067Z,7.26
2018-12-05T12:10:38.039Z,7.29
2018-12-05T12:11:38.010Z,7.19
2018-12-05T12:12:37.981Z,7.19
2018-12-05T12:13:37.959Z,7.12
2018-12-05T12:14:37.930Z,6.87
2018-12-05T12:15:37.902Z,6.93
2018-12-05T12:16:37.861Z,6.72
2018-12-05T12:17:37.838Z,7.05
2018-12-05T12:18:37.875Z,6.82
2018-12-05T12:19:37.786Z,6.65
2018-12-05T12:20:37.746Z,6.48
2018-12-05T12:21:37.716Z,6.14
2018-12-05T12:22:37.775Z,6.30
2018-12-05T12:23:37.666Z,6.08
2018-12-05T12:24:37.635Z,5.88
2018-12-05T12:25:37.601Z,5.99
2018-12-05T12:26:37.572Z,5.75
2018-12-05T12:27:37.541Z,5.74
2018-12-05T12:28:37.514Z,5.87
2018-12-05T12:29:37.483Z,5.87
2018-12-05T12:30:37.453Z,5.69
2018-12-05T12:31:37.425Z,5.67
2018-12-05T12:32:37.394Z,5.70
2018-12-05T12:33:37.364Z,5.73
2018-12-05T12:34:37.336Z,5.74
2018-12-05T12:35:37.305Z,5.74
2018-12-05T12:36:37.282Z,5.98
2018-12-05T12:37:37.245Z,6.16
2018-12-05T12:38:37.217Z,6.35
2018-12-05T12:39:37.394Z,6.51
2018-12-05T12:40:37.155Z,6.53
2018-12-05T12:41:37.127Z,6.53
2018-12-05T12:42:37.100Z,6.83
2018-12-05T12:43:37.067Z,7.39
2018-12-05T12:44:37.038Z,7.14
2018-12-05T12:45:37.011Z,7.29
2018-12-05T12:46:36.989Z,7.62
2018-12-05T12:47:36.951Z,7.57
2018-12-05T12:48:36.922Z,7.94
2018-12-05T12:49:36.892Z,7.74
2018-12-05T12:50:36.871Z,7.82
2018-12-05T12:51:36.833Z,7.96
2018-12-05T12:52:36.815Z,7.95
2018-12-05T12:53:36.774Z,7.79
2018-12-05T12:54:36.746Z,8.06
2018-12-05T12:55:36.720Z,8.36
2018-12-05T12:56:36.689Z,8.27
2018-12-05T12:57:36.663Z,8.02
2018-12-05T12:58:36.631Z,7.79
2018-12-05T12:59:36.608Z,8.17
2018-12-05T13:00:36.573Z,7.95
2018-12-05T13:01:36.549Z,7.92
2018-12-05T13:02:36.523Z,7.82
2018-12-05T13:03:36.489Z,8.03
2018-12-05T13:04:36.461Z,8.07
2018-12-05T13:05:36.436Z,7.96
2018-12-05T13:06:36.405Z,8.29
2018-12-05T13:07:36.387Z,8.55
2018-12-05T13:08:36.352Z,8.78
2018-12-05T13:09:36.330Z,8.79
2018-12-05T13:10:36.294Z,8.85
2018-12-05T13:11:36.266Z,8.75
2018-12-05T13:12:36.238Z,8.83
2018-12-05T13:13:36.212Z,8.45
2018-12-05T13:14:36.181Z,8.07
2018-12-05T13:15:36.166Z,7.44
2018-12-05T13:16:36.125Z,6.99
2018-12-05T13:17:36.099Z,6.75
2018-12-05T13:18:36.072Z,6.48
2018-12-05T13:19:36.043Z,6.10
2018-12-05T13:20:36.019Z,6.05
2018-12-05T13:21:35.985Z,5.90
2018-12-05T13:22:35.958Z,5.77
2018-12-05T13:23:35.943Z,5.73
2018-12-05T13:24:35.903Z,5.73
2018-12-05T13:25:35.879Z,5.78
2018-12-05T13:26:35.844Z,5.60
2018-12-05T13:27:35.816Z,5.69
2018-12-05T13:28:35.791Z,5.69
2018-12-05T13:29:35.774Z,5.67
2018-12-05T13:30:35.728Z,5.73
2018-12-05T13:31:35.697Z,5.73
2018-12-05T13:32:35.667Z,5.80
2018-12-05T13:33:35.639Z,6.02
2018-12-05T13:34:35.618Z,6.08
2018-12-05T13:35:35.581Z,6.03
2018-12-05T13:36:35.554Z,6.06
2018-12-05T13:37:35.529Z,6.02
2018-12-05T13:38:35.489Z,6.06
2018-12-05T13:39:35.462Z,5.96
2018-12-05T13:40:35.429Z,5.98
2018-12-05T13:41:35.401Z,5.75
2018-12-05T13:42:35.372Z,5.77
2018-12-05T13:43:35.341Z,5.74
2018-12-05T13:44:35.312Z,5.75
2018-12-05T13:45:35.282Z,5.67
2018-12-05T13:46:35.250Z,5.73
2018-12-05T13:47:35.221Z,5.62
2018-12-05T13:49:17.542Z,5.55
2018-12-05T13:50:17.307Z,5.51
2018-12-05T13:51:17.275Z,5.58
2018-12-05T13:52:17.246Z,5.58
2018-12-05T13:53:17.214Z,5.56
2018-12-05T13:54:17.182Z,5.58
2018-12-05T13:55:17.156Z,5.62
2018-12-05T13:56:17.138Z,5.67
2018-12-05T13:57:17.094Z,5.62
2018-12-05T13:58:17.062Z,5.70
2018-12-05T13:59:17.031Z,5.65
2018-12-05T14:00:17.016Z,5.81
2018-12-05T14:01:16.977Z,5.63
2018-12-05T14:02:16.951Z,5.67
2018-12-05T14:03:17.231Z,5.69
2018-12-05T14:04:16.878Z,5.78
2018-12-05T14:05:16.849Z,5.67
2018-12-05T14:06:16.824Z,5.69
2018-12-05T14:07:16.784Z,5.67
2018-12-05T14:08:16.753Z,5.56
2018-12-05T14:09:16.722Z,5.38
2018-12-05T14:10:16.698Z,5.26
2018-12-05T14:11:16.658Z,5.32
2018-12-05T14:12:16.626Z,5.26
2018-12-05T14:13:16.597Z,5.20
2018-12-05T14:14:16.577Z,5.09
2018-12-05T14:15:16.533Z,5.06
2018-12-05T14:16:16.519Z,5.04
2018-12-05T14:17:16.475Z,5.02
2018-12-05T14:18:16.443Z,5.04
2018-12-05T14:19:16.411Z,4.94
2018-12-05T14:20:16.381Z,5.01
2018-12-05T14:21:16.361Z,4.99
2018-12-05T14:22:16.525Z,5.11
2018-12-05T14:23:16.284Z,4.94
2018-12-05T14:24:16.268Z,5.04
2018-12-05T14:25:16.223Z,5.08
2018-12-05T14:26:16.190Z,4.88
2018-12-05T14:27:16.172Z,4.88
2018-12-05T14:28:16.129Z,4.84
2018-12-05T14:29:16.103Z,4.91